Time;durP1;ratioP1;P1;durP2;ratioP2;P2;SDS_P1;SDS_P2;PMS_P1;PMS_P2;Temp;Humidity;BMP_temperature;BMP_pressure;BME280_temperature;BME280_humidity;BME280_pressure;Samples;Min_cycle;Max_cycle;Signal;HPM_P1;HPM_P2
2023/12/25 00:02:26;;;;;;;116.18;63.72;;;;;;;;;;5050804;28;20416;-71
2023/12/25 00:05:30;;;;;;;135.68;75.82;;;;;;;;;;5050636;28;20056;-73
2023/12/25 00:08:36;;;;;;;133.00;75.60;;;;;;;;;;5098027;27;20060;-72
2023/12/25 00:11:40;;;;;;;132.80;73.93;;;;;;;;;;5050298;28;20056;-70
2023/12/25 00:14:44;;;;;;;122.82;69.07;;;;;;;;;;5050480;28;20056;-72
2023/12/25 00:17:49;;;;;;;116.22;69.75;;;;;;;;;;5050190;28;20056;-71
2023/12/25 00:20:54;;;;;;;140.25;81.80;;;13.90;99.90;;;;;;5050648;28;20400;-70
2023/12/25 00:23:59;;;;;;;125.60;75.93;;;;;;;;;;5050695;28;20640;-71
2023/12/25 00:27:03;;;;;;;144.38;85.05;;;;;;;;;;5097915;27;20510;-71
2023/12/25 00:30:07;;;;;;;151.48;86.85;;;;;;;;;;5050299;28;20656;-71
2023/12/25 00:33:11;;;;;;;148.80;87.65;;;;;;;;;;5050475;28;20506;-70
2023/12/25 00:36:16;;;;;;;144.10;89.82;;;;;;;;;;5098335;27;20040;-72
2023/12/25 00:39:20;;;;;;;157.93;87.93;;;;;;;;;;5085937;28;20060;-72
2023/12/25 00:42:24;;;;;;;140.18;86.82;;;;;;;;;;5097488;27;20040;-71
2023/12/25 00:45:29;;;;;;;143.02;84.82;;;;;;;;;;5050062;28;20507;-71
2023/12/25 00:48:33;;;;;;;140.50;87.82;;;;;;;;;;5097902;27;20048;-72
2023/12/25 00:51:37;;;;;;;150.90;88.78;;;;;;;;;;5049985;28;20048;-71
2023/12/25 00:54:42;;;;;;;145.30;86.47;;;;;;;;;;5097481;27;20044;-71
2023/12/25 00:57:46;;;;;;;137.70;85.85;;;;;;;;;;5049872;28;20503;-71
2023/12/25 01:00:50;;;;;;;145.35;86.47;;;;;;;;;;5049645;28;20059;-71
2023/12/25 01:03:54;;;;;;;140.07;83.82;;;;;;;;;;5097300;27;20060;-72
2023/12/25 01:06:59;;;;;;;139.73;85.15;;;;;;;;;;5049477;28;20044;-71
2023/12/25 01:10:03;;;;;;;135.48;85.10;;;;;;;;;;5049733;28;20392;-71
2023/12/25 01:13:07;;;;;;;138.15;83.95;;;;;;;;;;5096425;27;20507;-71
2023/12/25 01:16:12;;;;;;;147.30;90.00;;;;;;;;;;5049550;28;20056;-71
2023/12/25 01:19:17;;;;;;;147.00;95.13;;;;;;;;;;5085256;28;20052;-72
2023/12/25 01:22:21;;;;;;;153.25;93.80;;;;;;;;;;5049399;28;20032;-72
2023/12/25 01:25:25;;;;;;;153.75;90.05;;;;;;;;;;5049235;28;20040;-72
2023/12/25 01:28:30;;;;;;;148.13;93.97;;;;;;;;;;5049074;28;20077;-71
2023/12/25 01:31:35;;;;;;;162.13;99.93;;;;;;;;;;5049393;28;20044;-72
2023/12/25 01:34:40;;;;;;;149.73;93.70;;;;;;;;;;5096954;27;20056;-72
2023/12/25 01:37:44;;;;;;;153.75;94.93;;;;;;;;;;5049280;28;20121;-72
2023/12/25 01:40:49;;;;;;;146.38;92.75;;;;;;;;;;5084909;28;20072;-71
2023/12/25 01:43:53;;;;;;;139.40;87.63;;;;;;;;;;5096419;27;20036;-71
2023/12/25 01:46:58;;;;;;;146.35;90.03;;;;;;;;;;5049368;28;20048;-71
2023/12/25 01:50:03;;;;;;;144.75;86.78;;;12.20;99.90;;;;;;5096315;27;20048;-71
2023/12/25 01:53:08;;;;;;;130.80;84.47;;;;;;;;;;5049321;28;20075;-71
2023/12/25 01:56:12;;;;;;;140.75;85.55;;;;;;;;;;5096652;27;20036;-71
2023/12/25 01:59:16;;;;;;;149.13;88.60;;;;;;;;;;5048929;28;20052;-71
2023/12/25 02:02:22;;;;;;;136.02;85.57;;;;;;;;;;5084835;28;20506;-70
2023/12/25 02:05:27;;;;;;;144.57;83.43;;;;;;;;;;5049203;28;20052;-70
2023/12/25 02:08:32;;;;;;;142.25;86.38;;;13.60;99.90;;;;;;5097160;27;20059;-71
2023/12/25 02:11:41;;;;;;;135.02;85.28;;;13.60;99.90;;;;;;5096339;27;20044;-71
2023/12/25 02:14:46;;;;;;;135.57;85.88;;;;;;;;;;5095430;27;20396;-71
2023/12/25 02:17:51;;;;;;;133.18;82.47;;;14.00;99.90;;;;;;5048166;28;20044;-71
2023/12/25 02:20:56;;;;;;;128.18;81.35;;;13.50;99.90;;;;;;5096144;27;20507;-71
2023/12/25 02:24:05;;;;;;;121.95;78.35;;;13.50;99.90;;;;;;5095195;27;20048;-71
2023/12/25 02:27:12;;;;;;;128.20;78.95;;;;;;;;;;5048257;28;20064;-71
2023/12/25 02:30:16;;;;;;;131.77;80.15;;;;;;;;;;5048399;28;20499;-72
2023/12/25 02:33:20;;;;;;;124.00;78.65;;;;;;;;;;5048432;28;20180;-72
2023/12/25 02:36:25;;;;;;;135.05;80.93;;;;;;;;;;5095625;27;20491;-72
2023/12/25 02:39:29;;;;;;;121.55;75.28;;;13.40;99.90;;;;;;5095732;28;20412;-72
2023/12/25 02:42:37;;;;;;;119.00;74.07;;;;;;;;;;5095524;27;20040;-71
2023/12/25 02:45:41;;;;;;;121.53;72.57;;;;;;;;;;5084099;28;20052;-71
2023/12/25 02:48:45;;;;;;;113.95;70.53;;;;;;;;;;5048130;28;20059;-71
2023/12/25 02:51:49;;;;;;;124.25;73.63;;;;;;;;;;5095916;28;20404;-71
2023/12/25 02:54:53;;;;;;;114.75;72.47;;;;;;;;;;5048298;28;20499;-71
2023/12/25 02:57:58;;;;;;;119.15;70.40;;;;;;;;;;5047913;28;20044;-71
2023/12/25 03:01:02;;;;;;;116.15;73.30;;;;;;;;;;5047938;28;20040;-71
2023/12/25 03:04:07;;;;;;;130.27;69.35;;;;;;;;;;5048280;28;20048;-71
2023/12/25 03:07:11;;;;;;;109.55;66.97;;;;;;;;;;5047819;28;20040;-70
2023/12/25 03:10:15;;;;;;;114.13;67.65;;;;;;;;;;5047915;28;20044;-71
2023/12/25 03:13:19;;;;;;;101.38;61.28;;;;;;;;;;5095489;28;20048;-71
2023/12/25 03:16:24;;;;;;;100.30;57.10;;;;;;;;;;5095531;28;20049;-71
2023/12/25 03:19:28;;;;;;;93.93;55.88;;;;;;;;;;5095494;28;20056;-71
2023/12/25 03:22:32;;;;;;;103.18;59.47;;;;;;;;;;5047659;28;20500;-70
2023/12/25 03:25:36;;;;;;;110.00;58.47;;;;;;;;;;5047911;28;20048;-71
2023/12/25 03:28:41;;;;;;;95.57;54.97;;;;;;;;;;5083105;28;20040;-70
2023/12/25 03:31:45;;;;;;;99.78;54.25;;;;;;;;;;5047713;28;20040;-71
2023/12/25 03:34:50;;;;;;;92.10;50.22;;;;;;;;;;5096030;28;20064;-71
2023/12/25 03:37:53;;;;;;;91.22;45.22;;;;;;;;;;5098911;27;20052;-71
2023/12/25 03:40:58;;;;;;;84.72;46.08;;;;;;;;;;5050860;28;20052;-72
2023/12/25 03:44:03;;;;;;;83.10;39.88;;;;;;;;;;5050920;28;20044;-71
2023/12/25 03:47:07;;;;;;;75.43;44.28;;;;;;;;;;5051087;28;20056;-71
2023/12/25 03:50:12;;;;;;;86.70;43.80;;;;;;;;;;5098841;27;20059;-71
2023/12/25 03:53:16;;;;;;;81.05;45.80;;;;;;;;;;5098431;27;20044;-70
2023/12/25 03:56:23;;;;;;;84.90;46.47;;;13.40;99.90;;;;;;5050888;28;20052;-71
2023/12/25 03:59:27;;;;;;;91.32;50.22;;;;;;;;;;5097953;27;20075;-71
2023/12/25 04:02:32;;;;;;;101.13;57.90;;;;;;;;;;5050751;28;20040;-71
2023/12/25 04:05:37;;;;;;;108.88;62.28;;;;;;;;;;5098548;27;20048;-72
2023/12/25 04:08:45;;;;;;;105.40;64.55;;;;;;;;;;5098430;27;20064;-71
2023/12/25 04:11:50;;;;;;;105.85;63.58;;;13.20;99.90;;;;;;5098330;27;20048;-71
2023/12/25 04:14:54;;;;;;;109.90;61.67;;;;;;;;;;5050673;28;20033;-72
2023/12/25 04:17:58;;;;;;;107.70;62.92;;;;;;;;;;5050053;28;20180;-72
2023/12/25 04:21:02;;;;;;;102.72;61.92;;;;;;;;;;5098176;27;20056;-71
2023/12/25 04:24:07;;;;;;;99.97;60.97;;;;;;;;;;5098310;27;20040;-71
2023/12/25 04:27:12;;;;;;;105.90;62.90;;;;;;;;;;5098051;27;20044;-71
2023/12/25 04:30:17;;;;;;;104.78;61.53;;;;;;;;;;5097724;27;20055;-72
2023/12/25 04:33:21;;;;;;;102.28;63.45;;;;;;;;;;5098214;27;20052;-71
2023/12/25 04:36:25;;;;;;;104.60;60.67;;;;;;;;;;5050296;28;20044;-72
2023/12/25 04:39:29;;;;;;;104.70;63.70;;;;;;;;;;5050129;28;20052;-72
2023/12/25 04:42:34;;;;;;;108.53;60.92;;;;;;;;;;5097789;27;20040;-71
2023/12/25 04:45:38;;;;;;;104.05;62.28;;;;;;;;;;5098009;27;20044;-71
2023/12/25 04:48:43;;;;;;;108.07;63.55;;;;;;;;;;5049759;28;20044;-72
2023/12/25 04:51:47;;;;;;;108.15;61.65;;;;;;;;;;5049832;28;20396;-71
2023/12/25 04:54:52;;;;;;;102.22;60.88;;;;;;;;;;5097187;27;20044;-71
2023/12/25 04:57:56;;;;;;;105.97;62.05;;;;;;;;;;5049706;28;20040;-71
2023/12/25 05:01:00;;;;;;;107.68;62.55;;;;;;;;;;5049752;28;20056;-71
2023/12/25 05:04:05;;;;;;;115.03;66.55;;;13.50;99.90;;;;;;5085734;27;20499;-71
2023/12/25 05:07:09;;;;;;;110.70;63.97;;;;;;;;;;5096968;27;20113;-71
2023/12/25 05:10:13;;;;;;;103.40;62.28;;;;;;;;;;5049398;28;20044;-71
2023/12/25 05:13:18;;;;;;;102.00;61.28;;;;;;;;;;5085171;27;20044;-71
2023/12/25 05:16:22;;;;;;;102.60;60.55;;;;;;;;;;5097011;27;20056;-73
2023/12/25 05:19:26;;;;;;;110.55;64.18;;;;;;;;;;5049227;28;20508;-71
2023/12/25 05:22:30;;;;;;;107.07;61.60;;;;;;;;;;5049297;28;20048;-71
2023/12/25 05:25:35;;;;;;;106.50;58.42;;;;;;;;;;5049252;28;20059;-72
2023/12/25 05:28:39;;;;;;;102.13;56.67;;;;;;;;;;5096521;27;20040;-70
2023/12/25 05:31:43;;;;;;;97.55;57.97;;;;;;;;;;5049179;28;20187;-71
2023/12/25 05:34:48;;;;;;;104.53;55.42;;;;;;;;;;5049275;28;20040;-72
2023/12/25 05:37:52;;;;;;;96.53;56.67;;;;;;;;;;5049254;28;20187;-72
2023/12/25 05:40:57;;;;;;;98.28;55.58;;;;;;;;;;5049123;28;20048;-71
2023/12/25 05:44:01;;;;;;;94.55;58.22;;;;;;;;;;5048978;28;20044;-72
2023/12/25 05:47:05;;;;;;;99.45;61.60;;;;;;;;;;5097080;27;20048;-71
2023/12/25 05:50:12;;;;;;;110.47;69.40;;;;;;;;;;5048907;28;20036;-71
2023/12/25 05:53:17;;;;;;;96.85;58.15;;;;;;;;;;5048848;28;20051;-70
2023/12/25 05:56:21;;;;;;;94.22;54.92;;;;;;;;;;5048925;28;20507;-71
2023/12/25 05:59:26;;;;;;;97.50;57.05;;;;;;;;;;5048516;28;20055;-71
2023/12/25 06:02:30;;;;;;;104.43;59.05;;;;;;;;;;5049092;28;20044;-72
2023/12/25 06:05:35;;;;;;;96.68;55.05;;;;;;;;;;5049490;28;20052;-71
2023/12/25 06:08:39;;;;;;;96.35;54.03;;;;;;;;;;5049275;28;20052;-71
2023/12/25 06:11:44;;;;;;;98.43;54.80;;;;;;;;;;5096412;27;20044;-71
2023/12/25 06:14:49;;;;;;;91.18;54.05;;;;;;;;;;5049188;28;20400;-71
2023/12/25 06:17:53;;;;;;;90.95;53.53;;;;;;;;;;5096228;27;20051;-72
2023/12/25 06:20:57;;;;;;;84.88;47.95;;;;;;;;;;5048783;28;20048;-71
2023/12/25 06:24:01;;;;;;;80.85;46.88;;;;;;;;;;5101390;27;20044;-71
2023/12/25 06:27:06;;;;;;;85.18;44.88;;;;;;;;;;5106300;27;20044;-71
2023/12/25 06:30:11;;;;;;;90.00;46.22;;;;;;;;;;5054080;28;20048;-71
2023/12/25 06:33:15;;;;;;;88.10;50.58;;;;;;;;;;5053281;28;20051;-72
2023/12/25 06:36:19;;;;;;;87.25;49.17;;;;;;;;;;5050078;28;20495;-71
2023/12/25 06:39:24;;;;;;;78.32;46.42;;;;;;;;;;5048249;28;20044;-71
2023/12/25 06:42:28;;;;;;;80.60;43.50;;;;;;;;;;5048303;28;20117;-72
2023/12/25 06:45:32;;;;;;;71.88;41.05;;;;;;;;;;5048353;28;20072;-72
2023/12/25 06:48:37;;;;;;;77.00;43.97;;;;;;;;;;5048389;28;20048;-71
2023/12/25 06:51:41;;;;;;;75.53;41.33;;;;;;;;;;5048766;28;20644;-70
2023/12/25 06:54:45;;;;;;;69.57;38.10;;;;;;;;;;5048749;28;20412;-70
2023/12/25 06:57:50;;;;;;;59.72;33.75;;;;;;;;;;5048633;28;20044;-72
2023/12/25 07:00:55;;;;;;;57.88;28.88;;;;;;;;;;5049810;28;20074;-70
2023/12/25 07:03:59;;;;;;;65.72;33.92;;;;;;;;;;5049238;28;20044;-70
2023/12/25 07:07:04;;;;;;;60.40;33.97;;;;;;;;;;5048690;28;20048;-71
2023/12/25 07:10:09;;;;;;;53.63;28.58;;;;;;;;;;5049598;28;20049;-71
2023/12/25 07:13:13;;;;;;;57.97;27.45;;;13.40;99.90;;;;;;5052044;28;20048;-71
2023/12/25 07:16:21;;;;;;;46.05;25.98;;;13.50;99.90;;;;;;5099929;27;20043;-71
2023/12/25 07:19:26;;;;;;;50.53;25.77;;;;;;;;;;5051591;28;20047;-71
2023/12/25 07:22:31;;;;;;;53.10;26.40;;;;;;;;;;5051378;28;20510;-71
2023/12/25 07:25:38;;;;;;;57.45;27.85;;;15.40;99.90;;;;;;5099252;27;20499;-71
2023/12/25 07:28:42;;;;;;;56.38;28.17;;;;;;;;;;5051543;28;20056;-72
2023/12/25 07:31:47;;;;;;;49.55;26.80;;;;;;;;;;5052259;28;20524;-72
2023/12/25 07:34:51;;;;;;;46.10;24.23;;;;;;;;;;5051651;28;20057;-71
2023/12/25 07:37:55;;;;;;;50.40;25.15;;;;;;;;;;5051567;28;20396;-72
2023/12/25 07:41:00;;;;;;;53.70;26.50;;;;;;;;;;5051528;28;20500;-70
2023/12/25 07:44:06;;;;;;;57.20;28.83;;;;;;;;;;5100092;27;20044;-70
2023/12/25 07:47:10;;;;;;;55.20;29.63;;;;;;;;;;5051284;28;20043;-71
2023/12/25 07:50:14;;;;;;;50.88;28.83;;;;;;;;;;5051388;28;20044;-71
2023/12/25 07:53:19;;;;;;;48.47;25.50;;;13.50;99.90;;;;;;5051518;28;20048;-71
2023/12/25 07:56:25;;;;;;;42.05;23.15;;;;;;;;;;5051644;28;20040;-71
2023/12/25 07:59:29;;;;;;;45.25;21.20;;;;;;;;;;5051565;28;20511;-71
2023/12/25 08:02:33;;;;;;;39.33;21.70;;;;;;;;;;5051699;28;20048;-71
2023/12/25 08:05:38;;;;;;;44.92;20.17;;;;;;;;;;5051282;28;20044;-71
2023/12/25 08:08:43;;;;;;;45.45;20.75;;;;;;;;;;5051101;28;20044;-71
2023/12/25 08:11:48;;;;;;;46.25;21.08;;;;;;;;;;5098750;27;20048;-72
2023/12/25 08:14:52;;;;;;;47.53;21.48;;;;;;;;;;5098570;27;20526;-72
2023/12/25 08:17:56;;;;;;;46.72;22.25;;;;;;;;;;5050275;28;20048;-70
2023/12/25 08:21:01;;;;;;;60.47;23.20;;;13.90;99.90;;;;;;5049718;28;20072;-69
2023/12/25 08:24:05;;;;;;;50.55;21.85;;;;;;;;;;5050903;28;20040;-71
2023/12/25 08:27:10;;;;;;;59.30;23.20;;;;;;;;;;5098263;27;20052;-71
2023/12/25 08:30:14;;;;;;;54.78;21.38;;;;;;;;;;5098379;27;20044;-71
2023/12/25 08:33:19;;;;;;;54.42;21.90;;;;;;;;;;5050635;28;20052;-72
2023/12/25 08:36:23;;;;;;;45.00;20.30;;;;;;;;;;5099115;27;20645;-72
2023/12/25 08:39:27;;;;;;;43.08;18.77;;;;;;;;;;5097860;27;20052;-72
2023/12/25 08:42:31;;;;;;;40.13;18.75;;;;;;;;;;5050763;28;20048;-71
2023/12/25 08:45:36;;;;;;;46.83;20.20;;;;;;;;;;5050790;28;20518;-71
2023/12/25 08:48:40;;;;;;;37.80;18.25;;;;;;;;;;5050468;28;20052;-71
2023/12/25 08:51:45;;;;;;;37.67;18.15;;;;;;;;;;5050035;28;20515;-72
2023/12/25 08:54:49;;;;;;;42.22;17.98;;;;;;;;;;5050242;28;20052;-71
2023/12/25 08:57:53;;;;;;;45.97;18.17;;;;;;;;;;5098003;27;20048;-72
2023/12/25 09:00:57;;;;;;;43.08;17.35;;;;;;;;;;5050097;28;20060;-71
2023/12/25 09:04:02;;;;;;;33.70;16.98;;;;;;;;;;5050662;28;20044;-72
2023/12/25 09:07:06;;;;;;;38.97;15.93;;;;;;;;;;5049608;28;20385;-71
2023/12/25 09:10:11;;;;;;;35.22;14.68;;;;;;;;;;5050043;28;20052;-72
2023/12/25 09:13:16;;;;;;;32.83;13.70;;;;;;;;;;5049783;28;20048;-72
2023/12/25 09:16:20;;;;;;;40.72;13.77;;;;;;;;;;5049323;28;20261;-72
2023/12/25 09:19:25;;;;;;;42.65;13.18;;;;;;;;;;5049510;28;20056;-72
2023/12/25 09:22:29;;;;;;;34.50;13.50;;;;;;;;;;5097765;27;20043;-71
2023/12/25 09:25:33;;;;;;;34.97;14.85;;;;;;;;;;5049654;28;20036;-71
2023/12/25 09:28:38;;;;;;;45.15;17.65;;;14.30;99.90;;;;;;5049940;28;20047;-71
2023/12/25 09:31:42;;;;;;;36.55;17.23;;;;;;;;;;5097729;27;20048;-73
2023/12/25 09:34:46;;;;;;;43.30;19.42;;;;;;;;;;5049425;28;20044;-70
2023/12/25 09:37:51;;;;;;;45.65;18.98;;;;;;;;;;5048997;28;20044;-71
2023/12/25 09:40:58;;;;;;;37.97;13.93;;;;;;;;;;5048762;28;20056;-71
2023/12/25 09:44:02;;;;;;;36.20;13.02;;;;;;;;;;5096554;27;20048;-70
2023/12/25 09:47:08;;;;;;;31.92;12.05;;;;;;;;;;5048978;28;20056;-70
2023/12/25 09:50:12;;;;;;;31.02;10.45;;;;;;;;;;5048945;28;20384;-71
2023/12/25 09:53:16;;;;;;;29.95;9.15;;;;;;;;;;5096434;27;20052;-72
2023/12/25 09:56:22;;;;;;;27.90;9.20;;;15.10;99.40;;;;;;5048860;28;20040;-71
2023/12/25 09:59:28;;;;;;;21.92;7.05;;;;;;;;;;5053342;28;20048;-72
2023/12/25 10:02:33;;;;;;;20.05;8.88;;;;;;;;;;5049033;28;20076;-72
2023/12/25 10:05:38;;;;;;;30.00;8.65;;;;;;;;;;5049277;28;20037;-71
2023/12/25 10:08:42;;;;;;;22.98;7.35;;;;;;;;;;5049014;28;20045;-71
2023/12/25 10:11:46;;;;;;;19.95;4.97;;;;;;;;;;5048737;28;20033;-69
2023/12/25 10:14:51;;;;;;;19.88;5.13;;;;;;;;;;5049123;28;20040;-70
2023/12/25 10:18:06;;;;;;;20.10;4.85;;;;;;;;;;5048655;28;20052;-71
2023/12/25 10:21:11;;;;;;;23.52;4.18;;;;;;;;;;5097359;27;20662;-72
2023/12/25 10:24:16;;;;;;;14.20;4.13;;;;;;;;;;5048858;28;20365;-73
2023/12/25 10:27:22;;;;;;;14.63;3.63;;;19.50;98.00;;;;;;5048299;27;20052;-70
2023/12/25 10:30:26;;;;;;;11.50;3.47;;;;;;;;;;5049007;28;20499;-70
2023/12/25 10:33:31;;;;;;;18.23;3.65;;;;;;;;;;5048338;28;20052;-71
2023/12/25 10:36:36;;;;;;;17.52;4.22;;;;;;;;;;5094964;27;20037;-72
2023/12/25 10:39:40;;;;;;;15.18;4.22;;;;;;;;;;5048373;28;20041;-72
2023/12/25 10:42:48;;;;;;;12.70;3.38;;;;;;;;;;5048505;28;20518;-70
2023/12/25 10:45:54;;;;;;;9.50;3.40;;;;;;;;;;5095175;27;20041;-71
2023/12/25 10:48:58;;;;;;;10.65;3.50;;;;;;;;;;5095723;28;20033;-70
2023/12/25 10:52:04;;;;;;;9.32;3.20;;;;;;;;;;5095901;28;20041;-71
2023/12/25 10:55:09;;;;;;;13.52;3.80;;;;;;;;;;5095247;28;20033;-72
2023/12/25 10:58:13;;;;;;;22.10;4.38;;;;;;;;;;5095035;28;20072;-71
2023/12/25 11:01:25;;;;;;;16.50;3.90;;;;;;;;;;5047719;28;20103;-71
2023/12/25 11:04:30;;;;;;;9.55;3.45;;;;;;;;;;5048015;28;20036;-72
2023/12/25 11:07:34;;;;;;;12.43;3.53;;;;;;;;;;5047821;28;20037;-72
2023/12/25 11:10:39;;;;;;;15.93;3.70;;;;;;;;;;5047671;28;20396;-73
2023/12/25 11:13:43;;;;;;;8.18;3.35;;;;;;;;;;5047915;28;20040;-71
2023/12/25 11:16:47;;;;;;;10.07;3.67;;;;;;;;;;5048016;28;20053;-71
2023/12/25 11:19:51;;;;;;;12.77;4.55;;;;;;;;;;5047817;28;20049;-72
2023/12/25 11:22:55;;;;;;;14.45;3.95;;;;;;;;;;5047830;28;20398;-71
2023/12/25 11:26:00;;;;;;;13.82;4.35;;;;;;;;;;5047863;28;20037;-72
2023/12/25 11:29:10;;;;;;;11.88;4.25;;;;;;;;;;5047795;28;20107;-72
2023/12/25 11:32:17;;;;;;;12.68;4.63;;;;;;;;;;5047650;28;20041;-71
2023/12/25 11:35:29;;;;;;;11.43;4.03;;;16.20;96.50;;;;;;5047585;28;20368;-71
2023/12/25 11:38:33;;;;;;;9.60;4.57;;;;;;;;;;5047252;28;20513;-71
2023/12/25 11:41:38;;;;;;;13.52;5.30;;;;;;;;;;5047572;28;20053;-72
2023/12/25 11:44:42;;;;;;;13.13;5.53;;;;;;;;;;5047217;28;20033;-71
2023/12/25 11:47:51;;;;;;;15.57;6.78;;;17.60;97.20;;;;;;5047007;28;20052;-72
2023/12/25 11:51:19;;;;;;;23.85;8.15;;;;;;;;;;5047496;28;20044;-73
2023/12/25 11:54:28;;;;;;;15.55;6.38;;;;;;;;;;5095214;28;20045;-71
2023/12/25 11:57:35;;;;;;;14.88;6.50;;;;;;;;;;5050528;28;20045;-72
2023/12/25 12:00:39;;;;;;;18.70;7.40;;;;;;;;;;5050450;28;20045;-72
2023/12/25 12:03:47;;;;;;;21.13;7.50;;;;;;;;;;5098175;27;20040;-70
2023/12/25 12:06:52;;;;;;;25.67;13.43;;;;;;;;;;5050571;28;20045;-71
2023/12/25 12:09:56;;;;;;;34.25;14.77;;;;;;;;;;5050898;28;20110;-71
2023/12/25 12:13:00;;;;;;;22.40;11.98;;;;;;;;;;5050594;28;20040;-71
2023/12/25 12:16:04;;;;;;;20.05;9.38;;;;;;;;;;5050619;28;20044;-72
2023/12/25 12:19:12;;;;;;;14.75;7.80;;;;;;;;;;5050497;28;20044;-72
2023/12/25 12:22:17;;;;;;;15.00;5.32;;;;;;;;;;5050464;28;20048;-72
2023/12/25 12:25:22;;;;;;;29.90;9.52;;;;;;;;;;5097206;27;20033;-70
2023/12/25 12:28:27;;;;;;;37.15;11.35;;;;;;;;;;5098102;27;20044;-72
2023/12/25 12:31:31;;;;;;;25.75;9.35;;;;;;;;;;5050652;28;20052;-71
2023/12/25 12:34:35;;;;;;;18.60;8.10;;;;;;;;;;5098194;27;20040;-71
2023/12/25 12:37:39;;;;;;;18.42;7.78;;;;;;;;;;5097878;27;20037;-71
2023/12/25 12:40:44;;;;;;;18.17;6.75;;;;;;;;;;5050046;28;20396;-72
2023/12/25 12:43:49;;;;;;;15.88;6.30;;;;;;;;;;5050230;28;20033;-72
2023/12/25 12:46:53;;;;;;;18.38;7.32;;;;;;;;;;5049872;28;20055;-73
2023/12/25 12:49:58;;;;;;;17.25;7.03;;;;;;;;;;5097775;27;20061;-71
2023/12/25 12:53:02;;;;;;;22.08;7.90;;;;;;;;;;5049783;28;20037;-72
2023/12/25 12:56:07;;;;;;;17.48;7.05;;;;;;;;;;5049795;28;20041;-71
2023/12/25 12:59:11;;;;;;;16.58;7.25;;;;;;;;;;5049883;28;20033;-72
2023/12/25 13:02:15;;;;;;;21.77;8.90;;;;;;;;;;5097479;27;20147;-71
2023/12/25 13:05:20;;;;;;;21.23;9.93;;;;;;;;;;5049960;28;20052;-72
2023/12/25 13:08:25;;;;;;;26.17;11.68;;;;;;;;;;5096721;27;20068;-71
2023/12/25 13:11:30;;;;;;;28.77;11.65;;;;;;;;;;5050083;28;20510;-71
2023/12/25 13:14:35;;;;;;;26.52;12.25;;;;;;;;;;5049856;28;20044;-73
2023/12/25 13:17:39;;;;;;;22.63;11.05;;;;;;;;;;5049436;28;20064;-73
2023/12/25 13:20:43;;;;;;;17.45;9.10;;;;;;;;;;5049486;28;20060;-72
2023/12/25 13:23:47;;;;;;;18.35;10.50;;;;;;;;;;5096930;27;20040;-72
2023/12/25 13:26:52;;;;;;;26.52;12.00;;;;;;;;;;5049268;28;20546;-71
2023/12/25 13:29:56;;;;;;;35.95;18.02;;;;;;;;;;5097008;27;20047;-72
2023/12/25 13:33:01;;;;;;;31.48;16.08;;;;;;;;;;5049943;28;20048;-71
2023/12/25 13:36:06;;;;;;;34.92;18.67;;;;;;;;;;5049650;28;20063;-71
2023/12/25 13:39:10;;;;;;;37.53;18.33;;;;;;;;;;5049730;28;20044;-72
2023/12/25 13:42:14;;;;;;;37.47;18.10;;;;;;;;;;5049373;28;20048;-72
2023/12/25 13:45:19;;;;;;;26.55;13.43;;;;;;;;;;5049581;28;20040;-72
2023/12/25 13:48:25;;;;;;;21.05;9.38;;;;;;;;;;5049338;28;20040;-72
2023/12/25 13:51:29;;;;;;;27.73;10.45;;;;;;;;;;5049095;28;20507;-71
2023/12/25 13:54:33;;;;;;;26.45;11.63;;;;;;;;;;5084844;28;20044;-71
2023/12/25 13:57:38;;;;;;;24.67;8.82;;;;;;;;;;5049006;28;20499;-71
2023/12/25 14:00:43;;;;;;;17.23;6.68;;;;;;;;;;5049141;28;20057;-71
2023/12/25 14:03:47;;;;;;;20.00;7.35;;;;;;;;;;5097168;27;20037;-73
2023/12/25 14:06:53;;;;;;;18.27;6.20;;;;;;;;;;5049331;28;20052;-71
2023/12/25 14:09:57;;;;;;;21.83;6.78;;;;;;;;;;5049108;28;20041;-72
2023/12/25 14:13:01;;;;;;;19.00;7.63;;;;;;;;;;5049252;28;20048;-72
2023/12/25 14:16:05;;;;;;;23.10;11.45;;;;;;;;;;5048405;28;20041;-71
2023/12/25 14:19:10;;;;;;;21.92;11.23;;;;;;;;;;5048927;28;20052;-72
2023/12/25 14:22:14;;;;;;;36.00;12.80;;;;;;;;;;5096441;27;20044;-71
2023/12/25 14:25:22;;;;;;;28.48;11.23;;;;;;;;;;5048686;28;20060;-72
2023/12/25 14:28:27;;;;;;;23.38;10.40;;;;;;;;;;5048816;28;20499;-73
2023/12/25 14:31:32;;;;;;;26.20;12.13;;;;;;;;;;5048725;28;20048;-72
2023/12/25 14:34:36;;;;;;;91.90;34.00;;;;;;;;;;5048492;28;20044;-72
2023/12/25 14:37:41;;;;;;;220.10;74.60;;;;;;;;;;5048546;28;20044;-72
2023/12/25 14:40:45;;;;;;;92.07;32.25;;;;;;;;;;5096023;27;20056;-71
2023/12/25 14:43:50;;;;;;;71.05;26.10;;;;;;;;;;5049008;28;20043;-71
2023/12/25 14:46:54;;;;;;;53.47;20.65;;;;;;;;;;5096517;27;20048;-72
2023/12/25 14:49:58;;;;;;;28.52;13.73;;;;;;;;;;5095864;28;20392;-73
2023/12/25 14:53:03;;;;;;;22.95;11.25;;;;;;;;;;5048581;28;20044;-72
2023/12/25 14:56:07;;;;;;;18.20;9.13;;;;;;;;;;5048393;28;20048;-73
2023/12/25 14:59:11;;;;;;;18.45;10.40;;;;;;;;;;5048758;28;20037;-73
2023/12/25 15:02:16;;;;;;;21.10;9.85;;;;;;;;;;5048270;28;20072;-71
2023/12/25 15:05:20;;;;;;;16.73;9.52;;;;;;;;;;5084462;28;20049;-71
2023/12/25 15:08:25;;;;;;;20.05;9.73;;;;;;;;;;5048164;28;20037;-71
2023/12/25 15:11:29;;;;;;;22.30;11.75;;;;;;;;;;5096159;28;20044;-72
2023/12/25 15:14:34;;;;;;;22.23;11.32;;;;;;;;;;5095352;28;20048;-71
2023/12/25 15:17:38;;;;;;;22.10;9.73;;;;;;;;;;5095582;28;20048;-71
2023/12/25 15:20:42;;;;;;;20.48;10.10;;;;;;;;;;5047873;28;20044;-70
2023/12/25 15:23:47;;;;;;;23.98;12.57;;;;;;;;;;5048174;28;20044;-72
2023/12/25 15:26:51;;;;;;;25.80;15.15;;;;;;;;;;5095549;27;20389;-71
2023/12/25 15:29:57;;;;;;;31.02;14.73;;;15.60;97.60;;;;;;5048179;28;20051;-71
2023/12/25 15:33:01;;;;;;;29.80;14.82;;;;;;;;;;5051320;28;20044;-70
2023/12/25 15:36:06;;;;;;;31.25;13.88;;;;;;;;;;5051699;28;20048;-71
2023/12/25 15:39:10;;;;;;;34.63;14.57;;;;;;;;;;5050984;28;20036;-72
2023/12/25 15:42:14;;;;;;;27.05;15.30;;;;;;;;;;5051280;28;20052;-71
2023/12/25 15:45:19;;;;;;;39.53;19.63;;;;;;;;;;5098899;27;20052;-72
2023/12/25 15:48:23;;;;;;;37.80;19.25;;;;;;;;;;5098604;27;20040;-72
2023/12/25 15:51:28;;;;;;;33.28;18.08;;;;;;;;;;5099210;27;20048;-71
2023/12/25 15:54:32;;;;;;;35.22;18.45;;;;;;;;;;5050882;28;20393;-71
2023/12/25 15:57:37;;;;;;;35.22;19.95;;;;;;;;;;5050628;28;20491;-71
2023/12/25 16:00:41;;;;;;;38.47;16.77;;;;;;;;;;5051023;28;20047;-71
2023/12/25 16:03:47;;;;;;;29.88;14.40;;;;;;;;;;5098546;27;20036;-71
2023/12/25 16:06:52;;;;;;;27.65;15.65;;;;;;;;;;5051170;28;20245;-72
2023/12/25 16:09:57;;;;;;;33.00;16.40;;;;;;;;;;5098292;27;20044;-71
2023/12/25 16:13:01;;;;;;;32.10;15.95;;;;;;;;;;5050812;28;20056;-71
2023/12/25 16:16:05;;;;;;;28.05;14.43;;;;;;;;;;5050755;28;20036;-73
2023/12/25 16:19:10;;;;;;;29.55;13.80;;;;;;;;;;5050892;28;20503;-72
2023/12/25 16:22:14;;;;;;;30.20;12.73;;;;;;;;;;5098369;27;20056;-72
2023/12/25 16:25:19;;;;;;;27.73;12.88;;;;;;;;;;5050562;28;20400;-72
2023/12/25 16:28:24;;;;;;;31.58;15.82;;;;;;;;;;5050432;28;20048;-72
2023/12/25 16:31:29;;;;;;;36.25;17.20;;;;;;;;;;5050595;28;20044;-72
2023/12/25 16:34:33;;;;;;;29.10;15.93;;;;;;;;;;5050175;28;20040;-71
2023/12/25 16:37:38;;;;;;;29.55;14.65;;;;;;;;;;5050168;28;20040;-71
2023/12/25 16:40:44;;;;;;;29.98;14.38;;;;;;;;;;5050001;28;20060;-73
2023/12/25 16:43:48;;;;;;;32.47;14.50;;;;;;;;;;5049025;28;20051;-72
2023/12/25 16:46:52;;;;;;;25.60;11.40;;;;;;;;;;5049803;28;20044;-71
2023/12/25 16:49:57;;;;;;;25.95;10.60;;;;;;;;;;5050014;28;20503;-71
2023/12/25 16:53:01;;;;;;;25.42;10.98;;;;;;;;;;5050328;28;20419;-71
2023/12/25 16:56:06;;;;;;;29.30;12.48;;;;;;;;;;5049859;28;20048;-71
2023/12/25 16:59:10;;;;;;;27.20;13.07;;;;;;;;;;5049900;28;20040;-71
2023/12/25 17:02:15;;;;;;;34.40;15.82;;;;;;;;;;5049948;28;20052;-72
2023/12/25 17:05:19;;;;;;;30.65;16.20;;;;;;;;;;5096623;27;20044;-71
2023/12/25 17:08:24;;;;;;;30.67;16.85;;;;;;;;;;5097605;27;20137;-71
2023/12/25 17:11:28;;;;;;;42.30;19.58;;;;;;;;;;5097384;27;20098;-71
2023/12/25 17:14:33;;;;;;;43.35;19.30;;;;;;;;;;5049466;28;20515;-72
2023/12/25 17:17:37;;;;;;;40.10;20.23;;;;;;;;;;5049233;28;20060;-71
2023/12/25 17:20:42;;;;;;;43.95;22.63;;;;;;;;;;5096834;27;20048;-72
2023/12/25 17:23:48;;;;;;;43.75;21.95;;;;;;;;;;5049343;28;20044;-71
2023/12/25 17:26:53;;;;;;;48.30;20.50;;;;;;;;;;5097222;27;20515;-70
2023/12/25 17:29:57;;;;;;;45.50;20.90;;;;;;;;;;5049691;28;20504;-71
2023/12/25 17:33:04;;;;;;;39.10;19.52;;;;;;;;;;5049426;28;20404;-72
2023/12/25 17:36:09;;;;;;;54.38;21.63;;;17.80;99.90;;;;;;5049393;28;20044;-72
2023/12/25 17:39:13;;;;;;;43.30;20.15;;;;;;;;;;5049541;28;20044;-70
2023/12/25 17:42:18;;;;;;;46.05;22.33;;;;;;;;;;5096482;27;20404;-71
2023/12/25 17:45:22;;;;;;;46.42;22.30;;;;;;;;;;5049025;28;20059;-72